sensor_id;sensor_type;location;lat;lon;timestamp;P1;durP1;ratioP1;P2;durP2;ratioP2
42192;SDS011;52467;40.114;18.306;2022-10-15T00:01:11;6.22;;;3.25;;
42192;SDS011;52467;40.114;18.306;2022-10-15T00:03:41;6.50;;;2.65;;
42192;SDS011;52467;40.114;18.306;2022-10-15T00:06:10;6.80;;;3.35;;
42192;SDS011;52467;40.114;18.306;2022-10-15T00:08:42;4.95;;;3.00;;
42192;SDS011;52467;40.114;18.306;2022-10-15T00:11:11;6.43;;;2.70;;
42192;SDS011;52467;40.114;18.306;2022-10-15T00:13:39;8.85;;;3.60;;
42192;SDS011;52467;40.114;18.306;2022-10-15T00:16:11;8.88;;;2.80;;
42192;SDS011;52467;40.114;18.306;2022-10-15T00:18:39;7.03;;;2.80;;
42192;SDS011;52467;40.114;18.306;2022-10-15T00:21:11;5.33;;;2.70;;
42192;SDS011;52467;40.114;18.306;2022-10-15T00:23:40;5.37;;;3.33;;
42192;SDS011;52467;40.114;18.306;2022-10-15T00:26:09;5.47;;;3.00;;
42192;SDS011;52467;40.114;18.306;2022-10-15T00:28:39;5.03;;;3.00;;
42192;SDS011;52467;40.114;18.306;2022-10-15T00:31:10;4.30;;;3.13;;
42192;SDS011;52467;40.114;18.306;2022-10-15T00:33:39;4.60;;;2.95;;
42192;SDS011;52467;40.114;18.306;2022-10-15T00:36:14;4.88;;;2.90;;
42192;SDS011;52467;40.114;18.306;2022-10-15T00:38:49;5.97;;;2.83;;
42192;SDS011;52467;40.114;18.306;2022-10-15T00:41:21;6.53;;;3.70;;
42192;SDS011;52467;40.114;18.306;2022-10-15T00:43:51;5.22;;;3.17;;
42192;SDS011;52467;40.114;18.306;2022-10-15T00:49:17;5.82;;;3.13;;
42192;SDS011;52467;40.114;18.306;2022-10-15T00:54:30;6.82;;;3.28;;
42192;SDS011;52467;40.114;18.306;2022-10-15T00:57:00;6.95;;;3.53;;
42192;SDS011;52467;40.114;18.306;2022-10-15T00:59:27;7.35;;;3.20;;
42192;SDS011;52467;40.114;18.306;2022-10-15T01:01:55;6.05;;;3.50;;
42192;SDS011;52467;40.114;18.306;2022-10-15T01:04:24;6.55;;;3.22;;
42192;SDS011;52467;40.114;18.306;2022-10-15T01:06:51;7.18;;;3.53;;
42192;SDS011;52467;40.114;18.306;2022-10-15T01:09:18;5.18;;;3.03;;
42192;SDS011;52467;40.114;18.306;2022-10-15T01:11:46;5.22;;;3.63;;
42192;SDS011;52467;40.114;18.306;2022-10-15T01:22:25;5.25;;;3.45;;
42192;SDS011;52467;40.114;18.306;2022-10-15T01:30:46;6.05;;;3.05;;
42192;SDS011;52467;40.114;18.306;2022-10-15T01:38:59;7.85;;;3.80;;
42192;SDS011;52467;40.114;18.306;2022-10-15T01:41:42;5.57;;;3.20;;
42192;SDS011;52467;40.114;18.306;2022-10-15T01:47:03;6.43;;;3.17;;
42192;SDS011;52467;40.114;18.306;2022-10-15T01:49:37;4.00;;;2.88;;
42192;SDS011;52467;40.114;18.306;2022-10-15T01:52:08;4.43;;;3.10;;
42192;SDS011;52467;40.114;18.306;2022-10-15T01:54:40;6.78;;;3.30;;
42192;SDS011;52467;40.114;18.306;2022-10-15T01:57:08;8.40;;;3.63;;
42192;SDS011;52467;40.114;18.306;2022-10-15T01:59:38;5.95;;;3.30;;
42192;SDS011;52467;40.114;18.306;2022-10-15T02:02:06;6.32;;;3.75;;
42192;SDS011;52467;40.114;18.306;2022-10-15T02:04:33;5.00;;;3.20;;
42192;SDS011;52467;40.114;18.306;2022-10-15T02:09:33;4.90;;;3.10;;
42192;SDS011;52467;40.114;18.306;2022-10-15T02:15:04;6.63;;;3.65;;
42192;SDS011;52467;40.114;18.306;2022-10-15T02:18:00;6.32;;;3.65;;
42192;SDS011;52467;40.114;18.306;2022-10-15T02:23:27;6.95;;;3.60;;
42192;SDS011;52467;40.114;18.306;2022-10-15T02:26:00;6.85;;;3.70;;
42192;SDS011;52467;40.114;18.306;2022-10-15T02:28:30;6.60;;;3.28;;
42192;SDS011;52467;40.114;18.306;2022-10-15T02:30:59;6.75;;;3.60;;
42192;SDS011;52467;40.114;18.306;2022-10-15T02:33:28;6.63;;;3.90;;
42192;SDS011;52467;40.114;18.306;2022-10-15T02:35:56;7.07;;;3.80;;
42192;SDS011;52467;40.114;18.306;2022-10-15T02:38:24;5.13;;;3.38;;
42192;SDS011;52467;40.114;18.306;2022-10-15T02:40:52;7.05;;;4.00;;
42192;SDS011;52467;40.114;18.306;2022-10-15T02:43:20;6.10;;;3.67;;
42192;SDS011;52467;40.114;18.306;2022-10-15T02:45:49;5.63;;;3.63;;
42192;SDS011;52467;40.114;18.306;2022-10-15T02:48:19;6.20;;;3.55;;
42192;SDS011;52467;40.114;18.306;2022-10-15T02:50:46;6.38;;;3.78;;
42192;SDS011;52467;40.114;18.306;2022-10-15T02:53:14;7.90;;;3.90;;
42192;SDS011;52467;40.114;18.306;2022-10-15T02:55:42;4.55;;;3.10;;
42192;SDS011;52467;40.114;18.306;2022-10-15T02:58:10;6.13;;;3.80;;
42192;SDS011;52467;40.114;18.306;2022-10-15T03:00:37;7.43;;;3.75;;
42192;SDS011;52467;40.114;18.306;2022-10-15T03:03:05;7.05;;;3.80;;
42192;SDS011;52467;40.114;18.306;2022-10-15T03:05:32;6.68;;;3.90;;
42192;SDS011;52467;40.114;18.306;2022-10-15T03:08:00;6.72;;;3.60;;
42192;SDS011;52467;40.114;18.306;2022-10-15T03:10:29;4.28;;;3.30;;
42192;SDS011;52467;40.114;18.306;2022-10-15T03:13:00;5.60;;;3.63;;
42192;SDS011;52467;40.114;18.306;2022-10-15T03:15:32;5.93;;;3.53;;
42192;SDS011;52467;40.114;18.306;2022-10-15T03:18:00;7.25;;;3.63;;
42192;SDS011;52467;40.114;18.306;2022-10-15T03:20:27;5.95;;;3.55;;
42192;SDS011;52467;40.114;18.306;2022-10-15T03:22:55;7.80;;;3.60;;
42192;SDS011;52467;40.114;18.306;2022-10-15T03:25:22;5.97;;;3.40;;
42192;SDS011;52467;40.114;18.306;2022-10-15T03:27:58;6.40;;;3.33;;
42192;SDS011;52467;40.114;18.306;2022-10-15T03:30:34;7.60;;;3.15;;
42192;SDS011;52467;40.114;18.306;2022-10-15T03:33:02;5.00;;;3.20;;
42192;SDS011;52467;40.114;18.306;2022-10-15T03:35:29;5.50;;;3.08;;
42192;SDS011;52467;40.114;18.306;2022-10-15T03:37:57;7.10;;;3.30;;
42192;SDS011;52467;40.114;18.306;2022-10-15T03:40:24;6.15;;;3.45;;
42192;SDS011;52467;40.114;18.306;2022-10-15T03:42:56;4.15;;;3.05;;
42192;SDS011;52467;40.114;18.306;2022-10-15T03:45:23;4.20;;;3.05;;
42192;SDS011;52467;40.114;18.306;2022-10-15T03:48:08;6.50;;;3.45;;
42192;SDS011;52467;40.114;18.306;2022-10-15T03:50:36;5.63;;;3.33;;
42192;SDS011;52467;40.114;18.306;2022-10-15T03:53:03;4.32;;;2.88;;
42192;SDS011;52467;40.114;18.306;2022-10-15T03:55:32;5.68;;;3.55;;
42192;SDS011;52467;40.114;18.306;2022-10-15T03:58:00;7.25;;;3.95;;
42192;SDS011;52467;40.114;18.306;2022-10-15T04:00:28;6.03;;;3.00;;
42192;SDS011;52467;40.114;18.306;2022-10-15T04:02:58;5.80;;;3.30;;
42192;SDS011;52467;40.114;18.306;2022-10-15T04:05:27;5.00;;;3.40;;
42192;SDS011;52467;40.114;18.306;2022-10-15T04:08:03;7.68;;;3.65;;
42192;SDS011;52467;40.114;18.306;2022-10-15T04:10:35;5.53;;;3.28;;
42192;SDS011;52467;40.114;18.306;2022-10-15T04:13:02;5.43;;;3.35;;
42192;SDS011;52467;40.114;18.306;2022-10-15T04:15:32;6.22;;;3.35;;
42192;SDS011;52467;40.114;18.306;2022-10-15T04:18:03;5.70;;;3.60;;
42192;SDS011;52467;40.114;18.306;2022-10-15T04:20:31;4.27;;;3.17;;
42192;SDS011;52467;40.114;18.306;2022-10-15T04:23:14;6.75;;;3.10;;
42192;SDS011;52467;40.114;18.306;2022-10-15T04:26:02;6.40;;;3.43;;
42192;SDS011;52467;40.114;18.306;2022-10-15T04:28:29;5.75;;;3.42;;
42192;SDS011;52467;40.114;18.306;2022-10-15T04:30:57;7.28;;;3.47;;
42192;SDS011;52467;40.114;18.306;2022-10-15T04:33:25;5.47;;;3.70;;
42192;SDS011;52467;40.114;18.306;2022-10-15T04:36:06;4.60;;;3.27;;
42192;SDS011;52467;40.114;18.306;2022-10-15T04:38:51;11.07;;;4.18;;
42192;SDS011;52467;40.114;18.306;2022-10-15T04:41:34;6.28;;;3.70;;
42192;SDS011;52467;40.114;18.306;2022-10-15T04:44:05;6.43;;;3.80;;
42192;SDS011;52467;40.114;18.306;2022-10-15T04:46:32;5.35;;;3.50;;
42192;SDS011;52467;40.114;18.306;2022-10-15T04:49:18;5.97;;;3.70;;
42192;SDS011;52467;40.114;18.306;2022-10-15T04:51:46;5.67;;;3.53;;
42192;SDS011;52467;40.114;18.306;2022-10-15T04:54:19;5.53;;;3.60;;
42192;SDS011;52467;40.114;18.306;2022-10-15T04:56:58;6.57;;;3.50;;
42192;SDS011;52467;40.114;18.306;2022-10-15T04:59:26;6.35;;;3.20;;
42192;SDS011;52467;40.114;18.306;2022-10-15T05:02:12;7.05;;;3.47;;
42192;SDS011;52467;40.114;18.306;2022-10-15T05:04:40;7.55;;;3.95;;
42192;SDS011;52467;40.114;18.306;2022-10-15T05:07:07;5.55;;;3.70;;
42192;SDS011;52467;40.114;18.306;2022-10-15T05:09:35;5.90;;;3.30;;
42192;SDS011;52467;40.114;18.306;2022-10-15T05:12:04;7.60;;;3.50;;
42192;SDS011;52467;40.114;18.306;2022-10-15T05:14:31;5.55;;;3.58;;
42192;SDS011;52467;40.114;18.306;2022-10-15T05:17:09;7.18;;;3.70;;
42192;SDS011;52467;40.114;18.306;2022-10-15T05:19:39;5.68;;;3.33;;
42192;SDS011;52467;40.114;18.306;2022-10-15T05:22:14;5.23;;;3.40;;
42192;SDS011;52467;40.114;18.306;2022-10-15T05:24:47;7.18;;;3.95;;
42192;SDS011;52467;40.114;18.306;2022-10-15T05:27:31;4.93;;;3.15;;
42192;SDS011;52467;40.114;18.306;2022-10-15T05:30:00;3.90;;;3.10;;
42192;SDS011;52467;40.114;18.306;2022-10-15T05:32:36;6.63;;;3.55;;
42192;SDS011;52467;40.114;18.306;2022-10-15T05:35:03;7.70;;;3.10;;
42192;SDS011;52467;40.114;18.306;2022-10-15T05:38:07;4.80;;;3.05;;
42192;SDS011;52467;40.114;18.306;2022-10-15T05:40:35;4.55;;;2.80;;
42192;SDS011;52467;40.114;18.306;2022-10-15T05:43:05;6.22;;;2.67;;
42192;SDS011;52467;40.114;18.306;2022-10-15T05:45:32;7.85;;;3.00;;
42192;SDS011;52467;40.114;18.306;2022-10-15T05:48:04;6.05;;;2.78;;
42192;SDS011;52467;40.114;18.306;2022-10-15T05:50:33;5.13;;;2.80;;
42192;SDS011;52467;40.114;18.306;2022-10-15T05:53:03;3.72;;;2.70;;
42192;SDS011;52467;40.114;18.306;2022-10-15T05:55:38;3.93;;;2.40;;
42192;SDS011;52467;40.114;18.306;2022-10-15T05:58:05;7.43;;;2.63;;
42192;SDS011;52467;40.114;18.306;2022-10-15T06:00:33;7.10;;;2.60;;
42192;SDS011;52467;40.114;18.306;2022-10-15T06:03:01;6.00;;;2.30;;
42192;SDS011;52467;40.114;18.306;2022-10-15T06:05:28;6.23;;;2.67;;
42192;SDS011;52467;40.114;18.306;2022-10-15T06:07:55;4.38;;;2.13;;
42192;SDS011;52467;40.114;18.306;2022-10-15T06:10:24;4.28;;;2.58;;
42192;SDS011;52467;40.114;18.306;2022-10-15T06:12:51;4.30;;;2.38;;
42192;SDS011;52467;40.114;18.306;2022-10-15T06:15:19;3.20;;;2.22;;
42192;SDS011;52467;40.114;18.306;2022-10-15T06:17:50;5.32;;;2.30;;
42192;SDS011;52467;40.114;18.306;2022-10-15T06:20:20;3.00;;;2.30;;
42192;SDS011;52467;40.114;18.306;2022-10-15T06:22:47;6.22;;;2.75;;
42192;SDS011;52467;40.114;18.306;2022-10-15T06:25:15;5.65;;;2.65;;
42192;SDS011;52467;40.114;18.306;2022-10-15T06:27:42;4.60;;;2.67;;
42192;SDS011;52467;40.114;18.306;2022-10-15T06:30:09;3.50;;;2.33;;
42192;SDS011;52467;40.114;18.306;2022-10-15T06:32:37;3.80;;;2.17;;
42192;SDS011;52467;40.114;18.306;2022-10-15T06:35:04;6.00;;;2.30;;
42192;SDS011;52467;40.114;18.306;2022-10-15T06:37:33;6.43;;;2.53;;
42192;SDS011;52467;40.114;18.306;2022-10-15T06:40:00;3.15;;;2.20;;
42192;SDS011;52467;40.114;18.306;2022-10-15T06:42:28;5.80;;;3.13;;
42192;SDS011;52467;40.114;18.306;2022-10-15T06:44:55;7.20;;;2.50;;
42192;SDS011;52467;40.114;18.306;2022-10-15T06:47:22;6.05;;;2.40;;
42192;SDS011;52467;40.114;18.306;2022-10-15T06:49:50;5.57;;;2.75;;
42192;SDS011;52467;40.114;18.306;2022-10-15T06:52:17;4.50;;;2.67;;
42192;SDS011;52467;40.114;18.306;2022-10-15T06:54:45;5.00;;;2.93;;
42192;SDS011;52467;40.114;18.306;2022-10-15T06:57:12;6.90;;;3.28;;
42192;SDS011;52467;40.114;18.306;2022-10-15T06:59:39;5.25;;;2.67;;
42192;SDS011;52467;40.114;18.306;2022-10-15T07:02:08;5.80;;;2.55;;
42192;SDS011;52467;40.114;18.306;2022-10-15T07:04:36;4.60;;;2.67;;
42192;SDS011;52467;40.114;18.306;2022-10-15T07:07:03;5.70;;;2.65;;
42192;SDS011;52467;40.114;18.306;2022-10-15T07:09:31;4.35;;;2.65;;
42192;SDS011;52467;40.114;18.306;2022-10-15T07:11:59;5.10;;;2.27;;
42192;SDS011;52467;40.114;18.306;2022-10-15T07:14:28;3.43;;;2.20;;
42192;SDS011;52467;40.114;18.306;2022-10-15T07:16:56;4.80;;;1.80;;
42192;SDS011;52467;40.114;18.306;2022-10-15T07:19:24;3.58;;;1.98;;
42192;SDS011;52467;40.114;18.306;2022-10-15T07:21:51;2.72;;;1.83;;
42192;SDS011;52467;40.114;18.306;2022-10-15T07:24:18;3.08;;;2.00;;
42192;SDS011;52467;40.114;18.306;2022-10-15T07:26:46;3.55;;;2.17;;
42192;SDS011;52467;40.114;18.306;2022-10-15T07:29:13;3.92;;;2.20;;
42192;SDS011;52467;40.114;18.306;2022-10-15T07:31:42;3.78;;;1.88;;
42192;SDS011;52467;40.114;18.306;2022-10-15T07:34:13;4.07;;;2.20;;
42192;SDS011;52467;40.114;18.306;2022-10-15T07:36:40;1.95;;;1.58;;
42192;SDS011;52467;40.114;18.306;2022-10-15T07:39:08;3.17;;;1.90;;
42192;SDS011;52467;40.114;18.306;2022-10-15T07:41:35;3.55;;;2.08;;
42192;SDS011;52467;40.114;18.306;2022-10-15T07:44:03;2.45;;;1.95;;
42192;SDS011;52467;40.114;18.306;2022-10-15T07:46:30;3.83;;;1.93;;
42192;SDS011;52467;40.114;18.306;2022-10-15T07:48:58;4.65;;;2.45;;
42192;SDS011;52467;40.114;18.306;2022-10-15T07:51:25;2.90;;;1.98;;
42192;SDS011;52467;40.114;18.306;2022-10-15T07:53:52;3.05;;;1.73;;
42192;SDS011;52467;40.114;18.306;2022-10-15T07:56:20;2.75;;;2.00;;
42192;SDS011;52467;40.114;18.306;2022-10-15T07:58:47;3.53;;;1.83;;
42192;SDS011;52467;40.114;18.306;2022-10-15T08:01:19;3.08;;;1.60;;
42192;SDS011;52467;40.114;18.306;2022-10-15T08:03:46;3.27;;;2.20;;
42192;SDS011;52467;40.114;18.306;2022-10-15T08:06:14;3.30;;;1.83;;
42192;SDS011;52467;40.114;18.306;2022-10-15T08:08:42;3.38;;;2.13;;
42192;SDS011;52467;40.114;18.306;2022-10-15T08:11:10;3.03;;;1.98;;
42192;SDS011;52467;40.114;18.306;2022-10-15T08:13:39;3.80;;;1.93;;
42192;SDS011;52467;40.114;18.306;2022-10-15T08:16:08;3.50;;;2.10;;
42192;SDS011;52467;40.114;18.306;2022-10-15T08:18:37;3.30;;;2.13;;
42192;SDS011;52467;40.114;18.306;2022-10-15T08:21:05;3.08;;;2.10;;
42192;SDS011;52467;40.114;18.306;2022-10-15T08:23:34;5.23;;;2.00;;
42192;SDS011;52467;40.114;18.306;2022-10-15T08:26:01;2.80;;;2.00;;
42192;SDS011;52467;40.114;18.306;2022-10-15T08:28:30;3.13;;;2.22;;
42192;SDS011;52467;40.114;18.306;2022-10-15T08:30:58;2.75;;;1.88;;
42192;SDS011;52467;40.114;18.306;2022-10-15T08:33:28;4.00;;;1.75;;
42192;SDS011;52467;40.114;18.306;2022-10-15T08:35:55;3.40;;;2.08;;
42192;SDS011;52467;40.114;18.306;2022-10-15T08:38:23;2.08;;;1.80;;
42192;SDS011;52467;40.114;18.306;2022-10-15T08:40:51;3.33;;;1.88;;
42192;SDS011;52467;40.114;18.306;2022-10-15T08:43:22;3.63;;;2.10;;
42192;SDS011;52467;40.114;18.306;2022-10-15T08:45:54;3.25;;;2.03;;
42192;SDS011;52467;40.114;18.306;2022-10-15T08:48:33;3.20;;;2.30;;
42192;SDS011;52467;40.114;18.306;2022-10-15T08:51:05;3.80;;;2.53;;
42192;SDS011;52467;40.114;18.306;2022-10-15T08:53:41;3.25;;;2.15;;
42192;SDS011;52467;40.114;18.306;2022-10-15T08:56:17;4.63;;;2.30;;
42192;SDS011;52467;40.114;18.306;2022-10-15T09:05:18;4.20;;;2.15;;
42192;SDS011;52467;40.114;18.306;2022-10-15T09:13:37;4.13;;;2.22;;
42192;SDS011;52467;40.114;18.306;2022-10-15T09:16:11;3.20;;;2.10;;
42192;SDS011;52467;40.114;18.306;2022-10-15T09:18:47;3.95;;;2.20;;
42192;SDS011;52467;40.114;18.306;2022-10-15T09:21:17;5.03;;;2.10;;
42192;SDS011;52467;40.114;18.306;2022-10-15T09:23:46;3.20;;;1.60;;
42192;SDS011;52467;40.114;18.306;2022-10-15T09:28:58;7.45;;;2.60;;
42192;SDS011;52467;40.114;18.306;2022-10-15T09:31:32;3.88;;;1.90;;
42192;SDS011;52467;40.114;18.306;2022-10-15T09:34:17;3.92;;;2.00;;
42192;SDS011;52467;40.114;18.306;2022-10-15T09:36:49;3.00;;;2.03;;
42192;SDS011;52467;40.114;18.306;2022-10-15T09:44:42;2.55;;;1.80;;
42192;SDS011;52467;40.114;18.306;2022-10-15T09:47:25;2.63;;;1.92;;
42192;SDS011;52467;40.114;18.306;2022-10-15T09:50:01;4.53;;;2.25;;
42192;SDS011;52467;40.114;18.306;2022-10-15T10:01:18;2.70;;;1.80;;
42192;SDS011;52467;40.114;18.306;2022-10-15T10:03:54;2.90;;;1.70;;
42192;SDS011;52467;40.114;18.306;2022-10-15T10:06:44;2.20;;;1.30;;
42192;SDS011;52467;40.114;18.306;2022-10-15T10:09:18;2.58;;;1.88;;
42192;SDS011;52467;40.114;18.306;2022-10-15T10:12:16;3.45;;;1.55;;
42192;SDS011;52467;40.114;18.306;2022-10-15T10:14:52;1.90;;;1.63;;
42192;SDS011;52467;40.114;18.306;2022-10-15T10:17:25;3.20;;;1.50;;
42192;SDS011;52467;40.114;18.306;2022-10-15T10:22:42;3.50;;;1.63;;
42192;SDS011;52467;40.114;18.306;2022-10-15T10:27:53;3.42;;;1.73;;
42192;SDS011;52467;40.114;18.306;2022-10-15T10:30:35;1.88;;;1.35;;
42192;SDS011;52467;40.114;18.306;2022-10-15T10:33:04;2.28;;;1.50;;
42192;SDS011;52467;40.114;18.306;2022-10-15T10:35:42;1.40;;;1.30;;
42192;SDS011;52467;40.114;18.306;2022-10-15T10:38:19;2.50;;;1.50;;
42192;SDS011;52467;40.114;18.306;2022-10-15T10:40:53;2.50;;;1.40;;
42192;SDS011;52467;40.114;18.306;2022-10-15T10:43:27;1.80;;;1.35;;
42192;SDS011;52467;40.114;18.306;2022-10-15T10:48:32;2.30;;;1.60;;
42192;SDS011;52467;40.114;18.306;2022-10-15T10:51:09;2.30;;;1.60;;
42192;SDS011;52467;40.114;18.306;2022-10-15T10:53:52;2.80;;;1.30;;
42192;SDS011;52467;40.114;18.306;2022-10-15T10:56:29;2.50;;;1.65;;
42192;SDS011;52467;40.114;18.306;2022-10-15T10:59:03;3.13;;;1.50;;
42192;SDS011;52467;40.114;18.306;2022-10-15T11:01:37;2.60;;;1.50;;
42192;SDS011;52467;40.114;18.306;2022-10-15T11:04:10;3.20;;;1.67;;
42192;SDS011;52467;40.114;18.306;2022-10-15T11:18:00;2.85;;;1.70;;
42192;SDS011;52467;40.114;18.306;2022-10-15T11:29:01;2.38;;;1.80;;
42192;SDS011;52467;40.114;18.306;2022-10-15T11:31:38;2.10;;;1.70;;
42192;SDS011;52467;40.114;18.306;2022-10-15T11:34:24;4.60;;;1.70;;
42192;SDS011;52467;40.114;18.306;2022-10-15T11:37:18;2.63;;;1.40;;
42192;SDS011;52467;40.114;18.306;2022-10-15T11:48:47;2.22;;;1.42;;
42192;SDS011;52467;40.114;18.306;2022-10-15T11:54:36;3.50;;;1.50;;
42192;SDS011;52467;40.114;18.306;2022-10-15T11:57:17;4.05;;;1.58;;
42192;SDS011;52467;40.114;18.306;2022-10-15T12:02:46;2.67;;;1.70;;
42192;SDS011;52467;40.114;18.306;2022-10-15T12:05:21;8.02;;;1.92;;
42192;SDS011;52467;40.114;18.306;2022-10-15T12:07:53;3.42;;;1.85;;
42192;SDS011;52467;40.114;18.306;2022-10-15T12:10:46;3.13;;;1.50;;
42192;SDS011;52467;40.114;18.306;2022-10-15T12:13:39;2.28;;;1.40;;
42192;SDS011;52467;40.114;18.306;2022-10-15T12:16:24;5.05;;;1.80;;
42192;SDS011;52467;40.114;18.306;2022-10-15T12:30:20;4.15;;;1.67;;
42192;SDS011;52467;40.114;18.306;2022-10-15T12:32:47;3.10;;;1.50;;
42192;SDS011;52467;40.114;18.306;2022-10-15T12:35:20;2.45;;;1.52;;
42192;SDS011;52467;40.114;18.306;2022-10-15T12:37:54;1.92;;;1.33;;
42192;SDS011;52467;40.114;18.306;2022-10-15T12:45:53;3.25;;;1.90;;
42192;SDS011;52467;40.114;18.306;2022-10-15T12:48:33;2.65;;;1.70;;
42192;SDS011;52467;40.114;18.306;2022-10-15T12:53:43;4.18;;;1.63;;
42192;SDS011;52467;40.114;18.306;2022-10-15T12:58:49;2.00;;;1.20;;
42192;SDS011;52467;40.114;18.306;2022-10-15T13:11:23;2.17;;;1.20;;
42192;SDS011;52467;40.114;18.306;2022-10-15T13:13:52;4.70;;;1.40;;
42192;SDS011;52467;40.114;18.306;2022-10-15T13:16:24;1.95;;;1.30;;
42192;SDS011;52467;40.114;18.306;2022-10-15T13:18:52;2.72;;;1.70;;
42192;SDS011;52467;40.114;18.306;2022-10-15T13:21:21;3.50;;;1.30;;
42192;SDS011;52467;40.114;18.306;2022-10-15T13:23:49;2.08;;;1.58;;
42192;SDS011;52467;40.114;18.306;2022-10-15T13:26:22;1.67;;;1.23;;
42192;SDS011;52467;40.114;18.306;2022-10-15T13:28:53;2.33;;;1.30;;
42192;SDS011;52467;40.114;18.306;2022-10-15T13:31:29;2.17;;;1.10;;
42192;SDS011;52467;40.114;18.306;2022-10-15T13:33:59;4.07;;;1.50;;
42192;SDS011;52467;40.114;18.306;2022-10-15T13:36:43;2.92;;;1.42;;
42192;SDS011;52467;40.114;18.306;2022-10-15T13:42:28;1.52;;;1.40;;
42192;SDS011;52467;40.114;18.306;2022-10-15T13:47:33;2.58;;;1.63;;
42192;SDS011;52467;40.114;18.306;2022-10-15T13:50:19;2.55;;;1.70;;
42192;SDS011;52467;40.114;18.306;2022-10-15T13:53:33;3.75;;;1.73;;
42192;SDS011;52467;40.114;18.306;2022-10-15T13:55:43;3.60;;;1.88;;
42192;SDS011;52467;40.114;18.306;2022-10-15T14:00:49;2.78;;;2.10;;
42192;SDS011;52467;40.114;18.306;2022-10-15T14:03:28;2.78;;;2.00;;
42192;SDS011;52467;40.114;18.306;2022-10-15T14:05:57;2.78;;;2.03;;
42192;SDS011;52467;40.114;18.306;2022-10-15T14:08:34;5.30;;;2.50;;
42192;SDS011;52467;40.114;18.306;2022-10-15T14:11:02;3.47;;;2.23;;
42192;SDS011;52467;40.114;18.306;2022-10-15T14:13:30;4.30;;;2.75;;
42192;SDS011;52467;40.114;18.306;2022-10-15T14:15:58;5.25;;;2.42;;
42192;SDS011;52467;40.114;18.306;2022-10-15T14:18:46;4.97;;;2.80;;
42192;SDS011;52467;40.114;18.306;2022-10-15T14:21:19;3.63;;;2.45;;
42192;SDS011;52467;40.114;18.306;2022-10-15T14:23:48;6.22;;;2.30;;
42192;SDS011;52467;40.114;18.306;2022-10-15T14:26:15;6.95;;;2.83;;
42192;SDS011;52467;40.114;18.306;2022-10-15T14:28:50;5.20;;;2.60;;
42192;SDS011;52467;40.114;18.306;2022-10-15T14:31:28;4.88;;;2.60;;
42192;SDS011;52467;40.114;18.306;2022-10-15T14:33:58;4.25;;;2.20;;
42192;SDS011;52467;40.114;18.306;2022-10-15T14:36:29;5.35;;;1.95;;
42192;SDS011;52467;40.114;18.306;2022-10-15T14:42:05;4.68;;;2.50;;
42192;SDS011;52467;40.114;18.306;2022-10-15T14:44:48;2.97;;;2.20;;
42192;SDS011;52467;40.114;18.306;2022-10-15T14:47:24;5.53;;;2.10;;
42192;SDS011;52467;40.114;18.306;2022-10-15T14:49:53;2.88;;;2.40;;
42192;SDS011;52467;40.114;18.306;2022-10-15T14:52:21;6.03;;;2.47;;
42192;SDS011;52467;40.114;18.306;2022-10-15T14:57:29;5.00;;;2.80;;
42192;SDS011;52467;40.114;18.306;2022-10-15T15:00:00;4.07;;;2.45;;
42192;SDS011;52467;40.114;18.306;2022-10-15T15:02:29;4.28;;;2.17;;
42192;SDS011;52467;40.114;18.306;2022-10-15T15:05:13;6.55;;;2.58;;
42192;SDS011;52467;40.114;18.306;2022-10-15T15:07:46;4.35;;;2.55;;
42192;SDS011;52467;40.114;18.306;2022-10-15T15:10:16;6.10;;;2.58;;
42192;SDS011;52467;40.114;18.306;2022-10-15T15:12:51;5.20;;;2.50;;
42192;SDS011;52467;40.114;18.306;2022-10-15T15:15:20;5.80;;;2.33;;
42192;SDS011;52467;40.114;18.306;2022-10-15T15:17:49;6.28;;;2.83;;
42192;SDS011;52467;40.114;18.306;2022-10-15T15:20:17;8.65;;;2.70;;
42192;SDS011;52467;40.114;18.306;2022-10-15T15:22:50;7.80;;;2.50;;
42192;SDS011;52467;40.114;18.306;2022-10-15T15:25:21;4.72;;;2.47;;
42192;SDS011;52467;40.114;18.306;2022-10-15T15:27:53;5.07;;;2.53;;
42192;SDS011;52467;40.114;18.306;2022-10-15T15:30:23;4.07;;;2.60;;
42192;SDS011;52467;40.114;18.306;2022-10-15T15:32:52;5.82;;;3.10;;
42192;SDS011;52467;40.114;18.306;2022-10-15T15:35:21;4.65;;;2.35;;
42192;SDS011;52467;40.114;18.306;2022-10-15T15:37:53;5.05;;;2.45;;
42192;SDS011;52467;40.114;18.306;2022-10-15T15:40:21;5.15;;;2.70;;
42192;SDS011;52467;40.114;18.306;2022-10-15T15:42:48;5.53;;;2.60;;
42192;SDS011;52467;40.114;18.306;2022-10-15T15:45:21;5.10;;;2.20;;
42192;SDS011;52467;40.114;18.306;2022-10-15T15:47:50;5.85;;;2.90;;
42192;SDS011;52467;40.114;18.306;2022-10-15T15:50:18;8.50;;;2.87;;
42192;SDS011;52467;40.114;18.306;2022-10-15T15:52:46;7.97;;;3.10;;
42192;SDS011;52467;40.114;18.306;2022-10-15T15:55:14;7.67;;;2.53;;
42192;SDS011;52467;40.114;18.306;2022-10-15T15:57:42;5.15;;;2.90;;
42192;SDS011;52467;40.114;18.306;2022-10-15T16:00:11;6.25;;;2.35;;
42192;SDS011;52467;40.114;18.306;2022-10-15T16:02:39;6.18;;;2.80;;
42192;SDS011;52467;40.114;18.306;2022-10-15T16:05:08;7.10;;;2.75;;
42192;SDS011;52467;40.114;18.306;2022-10-15T16:07:38;8.23;;;2.75;;
42192;SDS011;52467;40.114;18.306;2022-10-15T16:10:06;6.57;;;3.00;;
42192;SDS011;52467;40.114;18.306;2022-10-15T16:12:37;4.37;;;2.93;;
42192;SDS011;52467;40.114;18.306;2022-10-15T16:15:05;7.78;;;3.42;;
42192;SDS011;52467;40.114;18.306;2022-10-15T16:17:33;3.90;;;2.40;;
42192;SDS011;52467;40.114;18.306;2022-10-15T16:20:01;4.22;;;2.70;;
42192;SDS011;52467;40.114;18.306;2022-10-15T16:22:28;6.25;;;2.60;;
42192;SDS011;52467;40.114;18.306;2022-10-15T16:24:56;4.57;;;2.60;;
42192;SDS011;52467;40.114;18.306;2022-10-15T16:27:23;3.83;;;2.37;;
42192;SDS011;52467;40.114;18.306;2022-10-15T16:29:52;4.57;;;2.85;;
42192;SDS011;52467;40.114;18.306;2022-10-15T16:32:19;6.43;;;2.80;;
42192;SDS011;52467;40.114;18.306;2022-10-15T16:34:46;3.73;;;2.43;;
42192;SDS011;52467;40.114;18.306;2022-10-15T16:37:14;4.20;;;2.53;;
42192;SDS011;52467;40.114;18.306;2022-10-15T16:39:41;4.32;;;2.40;;
42192;SDS011;52467;40.114;18.306;2022-10-15T16:42:08;5.30;;;2.63;;
42192;SDS011;52467;40.114;18.306;2022-10-15T16:44:36;3.97;;;2.43;;
42192;SDS011;52467;40.114;18.306;2022-10-15T16:47:03;4.78;;;2.40;;
42192;SDS011;52467;40.114;18.306;2022-10-15T16:49:31;4.43;;;2.78;;
42192;SDS011;52467;40.114;18.306;2022-10-15T16:51:58;4.63;;;2.75;;
42192;SDS011;52467;40.114;18.306;2022-10-15T16:54:25;3.47;;;2.65;;
42192;SDS011;52467;40.114;18.306;2022-10-15T16:56:53;4.83;;;2.33;;
42192;SDS011;52467;40.114;18.306;2022-10-15T16:59:20;7.57;;;2.85;;
42192;SDS011;52467;40.114;18.306;2022-10-15T17:01:48;6.70;;;2.80;;
42192;SDS011;52467;40.114;18.306;2022-10-15T17:04:15;4.95;;;2.58;;
42192;SDS011;52467;40.114;18.306;2022-10-15T17:06:43;5.50;;;2.97;;
42192;SDS011;52467;40.114;18.306;2022-10-15T17:09:10;5.18;;;2.70;;
42192;SDS011;52467;40.114;18.306;2022-10-15T17:11:39;6.63;;;2.97;;
42192;SDS011;52467;40.114;18.306;2022-10-15T17:14:11;6.72;;;2.78;;
42192;SDS011;52467;40.114;18.306;2022-10-15T17:16:41;4.65;;;2.67;;
42192;SDS011;52467;40.114;18.306;2022-10-15T17:19:10;5.18;;;2.67;;
42192;SDS011;52467;40.114;18.306;2022-10-15T17:21:38;4.32;;;2.67;;
42192;SDS011;52467;40.114;18.306;2022-10-15T17:24:08;7.25;;;3.00;;
42192;SDS011;52467;40.114;18.306;2022-10-15T17:26:37;5.55;;;3.15;;
42192;SDS011;52467;40.114;18.306;2022-10-15T17:29:07;4.90;;;2.88;;
42192;SDS011;52467;40.114;18.306;2022-10-15T17:31:36;5.28;;;2.88;;